This is the latest recevied weather packets stored in our database for station/object HB0RER-13. If no packets are shown the sender has not sent any weather packets the latest 10 day(s).
| Time | Temp. | Humidity | Pressure | Rain* | Wind** | Luminosity | Snow |
|---|---|---|---|---|---|---|---|
| 1776997859 | 5° C | 68% | 1023 hPa | 0 mm | - | - | - |
| 1776996656 | 5.56° C | 68% | 1023 hPa | 0 mm | - | - | - |
| 1776996073 | 5.56° C | 69% | 1023 hPa | 0 mm | - | - | - |
| 1776994849 | 5.56° C | 69% | 1023.1 hPa | 0 mm | - | - | - |
| 1776991840 | 5.56° C | 69% | 1023.2 hPa | 0 mm | - | - | - |
| 1776988228 | 5.56° C | 67% | 1023.7 hPa | 0 mm | - | - | - |
| 1776987625 | 5.56° C | 65% | 1023.7 hPa | 0 mm | - | - | - |
| 1776987024 | 6.11° C | 65% | 1023.8 hPa | 0 mm | - | - | - |
| 1776986442 | 6.11° C | 66% | 1023.8 hPa | 0 mm | - | - | - |
| 1776978013 | 8.89° C | 49% | 1023.7 hPa | 0 mm | - | - | - |
| 1776976789 | 9.44° C | 46% | 1023.5 hPa | 0 mm | - | - | - |
| 1776970769 | 13.89° C | 33% | 1022.9 hPa | 0 mm | - | - | - |
| 1776965954 | 17.22° C | 30% | 1022.8 hPa | 0 mm | - | - | - |
| 1776963546 | 18.33° C | 22% | 1022.9 hPa | 0 mm | - | - | - |
| 1776958730 | 18.89° C | 25% | 1023.1 hPa | 0 mm | - | - | - |
| 1776956322 | 18.89° C | 26% | 1023.2 hPa | 0 mm | - | - | - |
| 1776955137 | 18.89° C | 26% | 1023.5 hPa | 0 mm | - | - | - |
| 1776954516 | 18.89° C | 27% | 1023.5 hPa | 0 mm | - | - | - |
| 1776950903 | 18.33° C | 28% | 1024.2 hPa | 0 mm | - | - | - |
| 1776937078 | 16.11° C | 47% | 1026.2 hPa | 0 mm | - | - | - |
| 1776935854 | 15.56° C | 51% | 1026.3 hPa | 0 mm | - | - | - |
| 1776935272 | 15° C | 49% | 1026.3 hPa | 0 mm | - | - | - |
| 1776934047 | 15° C | 51% | 1026.3 hPa | 0 mm | - | - | - |
| 1776932863 | 14.44° C | 54% | 1026.6 hPa | 0 mm | - | - | - |
| 1776929853 | 12.78° C | 62% | 1026.6 hPa | 0 mm | - | - | - |
* Rain latest hour (hover to see other rain measurements)
** Current wind speed in m/s (hover to see current wind gust speed)